Menan, Idaho
Current Conditions -  °F | °C
As of 6:53 PM on Tuesday 21 Oct 2014 (Local Time) from KRXE Reporting Station
Overcast Overcast  
Wind Chill: 43°   Ceiling: 6500
Heat Index: 48°   Visibility: 10mi
Dew Point: 33°   Wind: 13mph
Humidity: 56%   Direction: 210°SSW
Pressure: 30.04"   Gusts: 23mph
Location:  43.72°N, 111.99°W
Report Text: KRXE 220053Z AUTO 21011G20KT 10SM SCT047 BKN065 OVC080 09/01 A3004 RMK AO2 SLP160 T00890006
Loading
Personal Weather Stations






























Interactive Weather Map
Tropical Storm Tracking
New forecast layout! Learn more

10-Day Weather Forecast

Advertisements
Track Severe Weather on mobile